EZY1480 EGKK-EGTE
Flight info
| Callsign | EZY1480 |
|---|---|
| Flight time | 0h 31m |
| Altitude | 22000 |
| Route | IMVUR1Z IMVUR N63 SAM DCT |
| Aircraft | A20N/M-SDE2E3FGHIRWXY/LB1 |
Departure
| Time | 2026-05-04 12:57 |
|---|---|
| Airport | London Gatwick Airport (EGKK) |
Arrival
| Time | 2026-05-04 13:29 |
|---|---|
| Airport | Exeter International Airport (EGTE) |
| Time | Latitude | Longitude | Altitude | Speed | Heading |
|---|---|---|---|---|---|
| 2026-05-04 12:19 | 51.15222 | -0.19501 | 201 ft | 0 kts | 78° |
| 2026-05-04 12:38 | 51.15220 | -0.19514 | 201 ft | 2 kts | 78° |
| 2026-05-04 12:38 | 51.15217 | -0.19538 | 201 ft | 2 kts | 78° |
| 2026-05-04 12:39 | 51.15214 | -0.19560 | 201 ft | 2 kts | 78° |
| 2026-05-04 12:39 | 51.15212 | -0.19585 | 201 ft | 2 kts | 103° |
| 2026-05-04 12:39 | 51.15218 | -0.19607 | 201 ft | 2 kts | 125° |
| 2026-05-04 12:39 | 51.15228 | -0.19624 | 201 ft | 2 kts | 148° |
| 2026-05-04 12:40 | 51.15237 | -0.19631 | 201 ft | 0 kts | 165° |
| 2026-05-04 12:40 | 51.15245 | -0.19633 | 201 ft | 0 kts | 168° |
| 2026-05-04 12:44 | 51.15240 | -0.19631 | 201 ft | 1 kts | 168° |
| 2026-05-04 12:44 | 51.15224 | -0.19626 | 201 ft | 3 kts | 168° |
| 2026-05-04 12:44 | 51.15195 | -0.19617 | 201 ft | 5 kts | 169° |
| 2026-05-04 12:45 | 51.15189 | -0.19615 | 201 ft | 0 kts | 169° |
| 2026-05-04 12:46 | 51.15188 | -0.19615 | 201 ft | 0 kts | 168° |
| 2026-05-04 12:46 | 51.15174 | -0.19609 | 201 ft | 3 kts | 167° |
| 2026-05-04 12:46 | 51.15144 | -0.19598 | 201 ft | 5 kts | 167° |
| 2026-05-04 12:47 | 51.15107 | -0.19584 | 201 ft | 3 kts | 167° |
| 2026-05-04 12:47 | 51.15101 | -0.19582 | 201 ft | 0 kts | 167° |
| 2026-05-04 12:50 | 51.15095 | -0.19580 | 201 ft | 1 kts | 167° |
| 2026-05-04 12:50 | 51.15076 | -0.19573 | 201 ft | 4 kts | 167° |
| 2026-05-04 12:50 | 51.15035 | -0.19572 | 201 ft | 8 kts | 199° |
| 2026-05-04 12:51 | 51.14998 | -0.19673 | 201 ft | 13 kts | 257° |
| 2026-05-04 12:51 | 51.14974 | -0.19853 | 201 ft | 19 kts | 258° |
| 2026-05-04 12:51 | 51.14941 | -0.20083 | 201 ft | 23 kts | 257° |
| 2026-05-04 12:51 | 51.14906 | -0.20333 | 202 ft | 16 kts | 256° |
| 2026-05-04 12:52 | 51.14895 | -0.20407 | 202 ft | 7 kts | 257° |
| 2026-05-04 12:52 | 51.14881 | -0.20507 | 202 ft | 11 kts | 257° |
| 2026-05-04 12:52 | 51.14870 | -0.20584 | 202 ft | 2 kts | 257° |
| 2026-05-04 12:52 | 51.14867 | -0.20600 | 202 ft | 2 kts | 252° |
| 2026-05-04 12:53 | 51.14851 | -0.20630 | 202 ft | 0 kts | 218° |
| 2026-05-04 12:54 | 51.14848 | -0.20645 | 202 ft | 4 kts | 257° |
| 2026-05-04 12:54 | 51.14841 | -0.20724 | 202 ft | 10 kts | 263° |
| 2026-05-04 12:54 | 51.14831 | -0.20865 | 203 ft | 15 kts | 263° |
| 2026-05-04 12:55 | 51.14813 | -0.21025 | 203 ft | 9 kts | 257° |
| 2026-05-04 12:55 | 51.14796 | -0.21128 | 204 ft | 10 kts | 253° |
| 2026-05-04 12:55 | 51.14783 | -0.21188 | 204 ft | 0 kts | 250° |
| 2026-05-04 12:55 | 51.14777 | -0.21211 | 204 ft | 3 kts | 250° |
| 2026-05-04 12:56 | 51.14765 | -0.21286 | 204 ft | 11 kts | 256° |
| 2026-05-04 12:56 | 51.14695 | -0.21363 | 204 ft | 14 kts | 166° |
| 2026-05-04 12:56 | 51.14595 | -0.21314 | 204 ft | 13 kts | 161° |
| 2026-05-04 12:56 | 51.14519 | -0.21215 | 204 ft | 13 kts | 106° |
| 2026-05-04 12:57 | 51.14534 | -0.21062 | 204 ft | 26 kts | 76° |
| 2026-05-04 12:57 | 51.14637 | -0.20325 | 202 ft | 106 kts | 78° |
| 2026-05-04 12:57 | 51.14836 | -0.18870 | 345 ft | 153 kts | 77° |
| 2026-05-04 12:57 | 51.15058 | -0.17199 | 1035 ft | 157 kts | 77° |
| 2026-05-04 12:58 | 51.15288 | -0.15547 | 1855 ft | 157 kts | 76° |
| 2026-05-04 12:58 | 51.15537 | -0.13788 | 2490 ft | 172 kts | 76° |
| 2026-05-04 12:58 | 51.15820 | -0.11786 | 2906 ft | 204 kts | 77° |
| 2026-05-04 12:58 | 51.16164 | -0.09332 | 2972 ft | 240 kts | 77° |
| 2026-05-04 12:59 | 51.16682 | -0.06912 | 2944 ft | 225 kts | 54° |
| 2026-05-04 12:59 | 51.17849 | -0.05398 | 2960 ft | 223 kts | 22° |
| 2026-05-04 12:59 | 51.19422 | -0.05143 | 3304 ft | 236 kts | 351° |
| 2026-05-04 12:59 | 51.20984 | -0.05874 | 4350 ft | 236 kts | 334° |
| 2026-05-04 13:00 | 51.22213 | -0.07538 | 5317 ft | 238 kts | 303° |
| 2026-05-04 13:00 | 51.22760 | -0.10038 | 6073 ft | 250 kts | 272° |
| 2026-05-04 13:00 | 51.22522 | -0.12892 | 6707 ft | 268 kts | 258° |
| 2026-05-04 13:00 | 51.22137 | -0.15855 | 7388 ft | 278 kts | 258° |
| 2026-05-04 13:01 | 51.21756 | -0.18907 | 7838 ft | 280 kts | 258° |
| 2026-05-04 13:01 | 51.21392 | -0.21933 | 7990 ft | 281 kts | 259° |
| 2026-05-04 13:01 | 51.21037 | -0.24950 | 7994 ft | 280 kts | 259° |
| 2026-05-04 13:01 | 51.20680 | -0.28005 | 7995 ft | 279 kts | 259° |
| 2026-05-04 13:02 | 51.20328 | -0.31037 | 8000 ft | 279 kts | 259° |
| 2026-05-04 13:02 | 51.19968 | -0.34123 | 8037 ft | 283 kts | 259° |
| 2026-05-04 13:02 | 51.19583 | -0.37219 | 8530 ft | 286 kts | 258° |
| 2026-05-04 13:02 | 51.19179 | -0.40301 | 8903 ft | 284 kts | 257° |
| 2026-05-04 13:03 | 51.18768 | -0.43379 | 9076 ft | 285 kts | 255° |
| 2026-05-04 13:03 | 51.17965 | -0.46243 | 9584 ft | 293 kts | 233° |
| 2026-05-04 13:03 | 51.16665 | -0.48711 | 10697 ft | 290 kts | 227° |
| 2026-05-04 13:03 | 51.15274 | -0.51106 | 11425 ft | 301 kts | 227° |
| 2026-05-04 13:04 | 51.13822 | -0.53547 | 12192 ft | 309 kts | 226° |
| 2026-05-04 13:04 | 51.12351 | -0.56015 | 13061 ft | 313 kts | 228° |
| 2026-05-04 13:04 | 51.11189 | -0.58923 | 13885 ft | 318 kts | 248° |
| 2026-05-04 13:04 | 51.10505 | -0.62269 | 14750 ft | 322 kts | 254° |
| 2026-05-04 13:05 | 51.09900 | -0.65702 | 15567 ft | 326 kts | 253° |
| 2026-05-04 13:05 | 51.09272 | -0.69143 | 16371 ft | 330 kts | 252° |
| 2026-05-04 13:05 | 51.08597 | -0.72645 | 17177 ft | 334 kts | 251° |
| 2026-05-04 13:05 | 51.07896 | -0.76139 | 17920 ft | 338 kts | 250° |
| 2026-05-04 13:06 | 51.07175 | -0.79655 | 18415 ft | 335 kts | 250° |
| 2026-05-04 13:06 | 51.06444 | -0.83165 | 18437 ft | 339 kts | 250° |
| 2026-05-04 13:06 | 51.05692 | -0.86750 | 18387 ft | 341 kts | 250° |
| 2026-05-04 13:06 | 51.04937 | -0.90325 | 18341 ft | 342 kts | 250° |
| 2026-05-04 13:07 | 51.04185 | -0.93889 | 18295 ft | 341 kts | 250° |
| 2026-05-04 13:07 | 51.03438 | -0.97414 | 18247 ft | 341 kts | 250° |
| 2026-05-04 13:07 | 51.02685 | -1.00962 | 18191 ft | 340 kts | 250° |
| 2026-05-04 13:07 | 51.01926 | -1.04528 | 18140 ft | 340 kts | 250° |
| 2026-05-04 13:08 | 51.01163 | -1.08105 | 18056 ft | 340 kts | 250° |
| 2026-05-04 13:08 | 51.00417 | -1.11598 | 18037 ft | 340 kts | 250° |
| 2026-05-04 13:08 | 50.99653 | -1.15165 | 17923 ft | 340 kts | 250° |
| 2026-05-04 13:08 | 50.98901 | -1.18675 | 17658 ft | 337 kts | 250° |
| 2026-05-04 13:09 | 50.98145 | -1.22191 | 17374 ft | 336 kts | 250° |
| 2026-05-04 13:09 | 50.97387 | -1.25712 | 17110 ft | 335 kts | 250° |
| 2026-05-04 13:09 | 50.96645 | -1.29154 | 16853 ft | 333 kts | 250° |
| 2026-05-04 13:09 | 50.95943 | -1.32724 | 16590 ft | 332 kts | 253° |
| 2026-05-04 13:10 | 50.95400 | -1.36321 | 16332 ft | 331 kts | 257° |
| 2026-05-04 13:10 | 50.95009 | -1.39884 | 16080 ft | 331 kts | 260° |
| 2026-05-04 13:10 | 50.94670 | -1.43519 | 15823 ft | 329 kts | 260° |
| 2026-05-04 13:10 | 50.94339 | -1.47087 | 15567 ft | 328 kts | 260° |
| 2026-05-04 13:11 | 50.94006 | -1.50650 | 15314 ft | 326 kts | 260° |
| 2026-05-04 13:11 | 50.93673 | -1.54194 | 15060 ft | 325 kts | 260° |
| 2026-05-04 13:11 | 50.93339 | -1.57716 | 14812 ft | 324 kts | 260° |
| 2026-05-04 13:11 | 50.93006 | -1.61216 | 14559 ft | 323 kts | 260° |
| 2026-05-04 13:12 | 50.92668 | -1.64744 | 14301 ft | 322 kts | 260° |
| 2026-05-04 13:12 | 50.92333 | -1.68229 | 14080 ft | 320 kts | 259° |
| 2026-05-04 13:12 | 50.91996 | -1.71719 | 13834 ft | 319 kts | 259° |
| 2026-05-04 13:12 | 50.91662 | -1.75176 | 13545 ft | 318 kts | 259° |
| 2026-05-04 13:13 | 50.91325 | -1.78633 | 13304 ft | 317 kts | 259° |
| 2026-05-04 13:13 | 50.90992 | -1.82050 | 13071 ft | 316 kts | 259° |
| 2026-05-04 13:13 | 50.90651 | -1.85526 | 12825 ft | 315 kts | 259° |
| 2026-05-04 13:13 | 50.90318 | -1.88919 | 12573 ft | 313 kts | 259° |
| 2026-05-04 13:14 | 50.89979 | -1.92354 | 12300 ft | 312 kts | 259° |
| 2026-05-04 13:14 | 50.89645 | -1.95745 | 12065 ft | 311 kts | 259° |
| 2026-05-04 13:14 | 50.89310 | -1.99119 | 11804 ft | 311 kts | 259° |
| 2026-05-04 13:14 | 50.88974 | -2.02502 | 11562 ft | 310 kts | 259° |
| 2026-05-04 13:15 | 50.88637 | -2.05892 | 11327 ft | 308 kts | 259° |
| 2026-05-04 13:15 | 50.88300 | -2.09264 | 11067 ft | 307 kts | 259° |
| 2026-05-04 13:15 | 50.87967 | -2.12595 | 10829 ft | 305 kts | 259° |
| 2026-05-04 13:15 | 50.87632 | -2.15928 | 10604 ft | 304 kts | 259° |
| 2026-05-04 13:16 | 50.87299 | -2.19216 | 10337 ft | 304 kts | 260° |
| 2026-05-04 13:16 | 50.86964 | -2.22540 | 10112 ft | 303 kts | 259° |
| 2026-05-04 13:16 | 50.86634 | -2.25795 | 9894 ft | 302 kts | 260° |
| 2026-05-04 13:16 | 50.86300 | -2.29080 | 9786 ft | 302 kts | 260° |
| 2026-05-04 13:17 | 50.85963 | -2.32386 | 9668 ft | 299 kts | 259° |
| 2026-05-04 13:17 | 50.85638 | -2.35575 | 9490 ft | 289 kts | 260° |
| 2026-05-04 13:17 | 50.85317 | -2.38700 | 9355 ft | 286 kts | 260° |
| 2026-05-04 13:17 | 50.84996 | -2.41829 | 9240 ft | 287 kts | 259° |
| 2026-05-04 13:18 | 50.84677 | -2.44961 | 9105 ft | 287 kts | 259° |
| 2026-05-04 13:18 | 50.84349 | -2.48078 | 8913 ft | 286 kts | 259° |
| 2026-05-04 13:18 | 50.84022 | -2.51160 | 8731 ft | 286 kts | 259° |
| 2026-05-04 13:18 | 50.83695 | -2.54261 | 8469 ft | 285 kts | 260° |
| 2026-05-04 13:19 | 50.83372 | -2.57332 | 8155 ft | 284 kts | 260° |
| 2026-05-04 13:19 | 50.83048 | -2.60418 | 7815 ft | 282 kts | 260° |
| 2026-05-04 13:19 | 50.82726 | -2.63481 | 7472 ft | 281 kts | 260° |
| 2026-05-04 13:19 | 50.82409 | -2.66502 | 7127 ft | 279 kts | 259° |
| 2026-05-04 13:20 | 50.82093 | -2.69507 | 6790 ft | 277 kts | 259° |
| 2026-05-04 13:20 | 50.81776 | -2.72498 | 6448 ft | 275 kts | 259° |
| 2026-05-04 13:20 | 50.81462 | -2.75465 | 6111 ft | 273 kts | 259° |
| 2026-05-04 13:20 | 50.81151 | -2.78404 | 5782 ft | 271 kts | 259° |
| 2026-05-04 13:21 | 50.80839 | -2.81338 | 5445 ft | 270 kts | 260° |
| 2026-05-04 13:21 | 50.80530 | -2.84234 | 5112 ft | 268 kts | 260° |
| 2026-05-04 13:21 | 50.80222 | -2.87118 | 4765 ft | 262 kts | 260° |
| 2026-05-04 13:21 | 50.79922 | -2.89926 | 4444 ft | 255 kts | 260° |
| 2026-05-04 13:22 | 50.79628 | -2.92666 | 4130 ft | 252 kts | 260° |
| 2026-05-04 13:22 | 50.79337 | -2.95363 | 3823 ft | 251 kts | 260° |
| 2026-05-04 13:22 | 50.79040 | -2.98113 | 3505 ft | 250 kts | 261° |
| 2026-05-04 13:22 | 50.78748 | -3.00821 | 3258 ft | 247 kts | 261° |
| 2026-05-04 13:23 | 50.78519 | -3.03405 | 3224 ft | 232 kts | 269° |
| 2026-05-04 13:23 | 50.78552 | -3.05879 | 3205 ft | 217 kts | 270° |
| 2026-05-04 13:23 | 50.78464 | -3.08170 | 3168 ft | 204 kts | 262° |
| 2026-05-04 13:23 | 50.78250 | -3.10284 | 3202 ft | 184 kts | 260° |
| 2026-05-04 13:24 | 50.78021 | -3.12131 | 3104 ft | 162 kts | 258° |
| 2026-05-04 13:24 | 50.77790 | -3.13757 | 3032 ft | 145 kts | 257° |
| 2026-05-04 13:24 | 50.77555 | -3.15300 | 2957 ft | 142 kts | 256° |
| 2026-05-04 13:25 | 50.77080 | -3.18309 | 2843 ft | 142 kts | 256° |
| 2026-05-04 13:25 | 50.76836 | -3.19836 | 2643 ft | 141 kts | 256° |
| 2026-05-04 13:25 | 50.76597 | -3.21325 | 2486 ft | 141 kts | 256° |
| 2026-05-04 13:25 | 50.76359 | -3.22815 | 2364 ft | 139 kts | 256° |
| 2026-05-04 13:26 | 50.76120 | -3.24316 | 2366 ft | 140 kts | 256° |
| 2026-05-04 13:26 | 50.75883 | -3.25807 | 2201 ft | 140 kts | 256° |
| 2026-05-04 13:26 | 50.75648 | -3.27289 | 1982 ft | 139 kts | 256° |
| 2026-05-04 13:26 | 50.75417 | -3.28770 | 1776 ft | 139 kts | 257° |
| 2026-05-04 13:27 | 50.75184 | -3.30245 | 1573 ft | 139 kts | 255° |
| 2026-05-04 13:27 | 50.74948 | -3.31716 | 1339 ft | 138 kts | 255° |
| 2026-05-04 13:27 | 50.74710 | -3.33166 | 1123 ft | 137 kts | 255° |
| 2026-05-04 13:27 | 50.74495 | -3.34645 | 906 ft | 136 kts | 256° |
| 2026-05-04 13:28 | 50.74265 | -3.36071 | 702 ft | 133 kts | 253° |
| 2026-05-04 13:28 | 50.74039 | -3.37478 | 491 ft | 132 kts | 255° |
| 2026-05-04 13:28 | 50.73822 | -3.38885 | 300 ft | 132 kts | 254° |
| 2026-05-04 13:28 | 50.73601 | -3.40285 | 115 ft | 130 kts | 254° |
| 2026-05-04 13:29 | 50.73406 | -3.41529 | 95 ft | 99 kts | 255° |
| 2026-05-04 13:29 | 50.73287 | -3.42249 | 98 ft | 23 kts | 220° |
| 2026-05-04 13:29 | 50.73152 | -3.42225 | 99 ft | 19 kts | 169° |
| 2026-05-04 13:29 | 50.73082 | -3.42109 | 99 ft | 17 kts | 70° |
| 2026-05-04 13:30 | 50.73105 | -3.42002 | 99 ft | 9 kts | 101° |
| 2026-05-04 13:30 | 50.73088 | -3.41940 | 100 ft | 5 kts | 116° |
| 2026-05-04 13:30 | 50.73078 | -3.41909 | 101 ft | 1 kts | 116° |